Musette — WDB9800 — position and weather

sailwx.info

Track history (hours):
 
Tides and Currents Weather Stations Pressure Air Temp Water Temp Dewpoint Dewpoint Depression Visibility Wind Speed Wind Dir Waves Ship Positions

Musette

Owner: Carfi Enterprises, Wellington, FL. More information available from US FCC via Universal Licensing System and Coast Guard Vessel Documentation Center.

Last reported at 2017-Oct-22 04:03 UTC. Time now 2017-Oct-22 06:21 UTC.
Position N 26°07' W 080°08'.

; draft 2 m.

Type: Ship. MMSI: 366983050.

Date/timePositionNaut miles runAvg speedWind from/ knotsBaromVisibWave heightAir tempDewpointWater temp
2017-Oct-22 04:03N 26°07' W 080°08'0 0.0
2017-Oct-22 04:00N 26°07' W 080°08'2 3.5
2017-Oct-22 03:30N 26°07' W 080°06'0 0.0
2017-Oct-22 03:00N 26°07' W 080°06'2 3.3
2017-Oct-22 02:30N 26°07' W 080°08'2 4.3
2017-Oct-22 02:00N 26°06' W 080°10'0 0.1
2017-Oct-21 23:44N 26°06' W 080°10'0 0.0
2017-Oct-21 23:30N 26°06' W 080°10'1 2.9
2017-Oct-21 23:00N 26°07' W 080°09'2 4.5
2017-Oct-21 22:30N 26°07' W 080°07'0 0.9
2017-Oct-21 22:00N 26°07' W 080°06'0 0.0
2017-Oct-21 21:30N 26°07' W 080°06'0 0.2
2017-Oct-21 21:00N 26°07' W 080°06'2 3.3
2017-Oct-21 20:30N 26°07' W 080°08'0 0.0
2017-Oct-21 16:57N 26°07' W 080°08'1 1.6
2017-Oct-21 16:30N 26°07' W 080°08'1 2.1
2017-Oct-21 16:00N 26°06' W 080°07'3 0.1
2017-Oct-19 23:58N 26°03' W 080°07'1 2.5
2017-Oct-19 23:30N 26°04' W 080°07'3 5.8
2017-Oct-19 23:00N 26°07' W 080°08'0 0.0
2017-Oct-19 03:48N 26°07' W 080°08'0 0.2
2017-Oct-19 03:30N 26°07' W 080°08'2 3.4
2017-Oct-19 03:00N 26°07' W 080°06'2 3.8
2017-Oct-19 02:30N 26°07' W 080°08'1 1.4
2017-Oct-19 02:00N 26°07' W 080°09'2 3.2
2017-Oct-19 01:30N 26°06' W 080°10'0 0.0
2017-Oct-19 01:00N 26°06' W 080°10'0 0.0
2017-Oct-19 00:30N 26°06' W 080°10'0 0.0
2017-Oct-19 00:00N 26°06' W 080°10'0 0.0
2017-Oct-18 23:30N 26°06' W 080°10'1 2.1
2017-Oct-18 23:00N 26°06' W 080°10'1 2.4
2017-Oct-18 22:30N 26°07' W 080°08'2 3.7
2017-Oct-18 22:00N 26°07' W 080°06'0 0.0
2017-Oct-18 21:30N 26°07' W 080°06'0 0.0
2017-Oct-18 21:00N 26°07' W 080°06'0 0.1
2017-Oct-18 20:30N 26°07' W 080°06'2 3.5
2017-Oct-18 20:00N 26°07' W 080°08'0 0.0
2017-Oct-18 19:30N 26°07' W 080°08'0 0.0
2017-Oct-18 19:00N 26°07' W 080°08'0 0.0
2017-Oct-18 18:30N 26°07' W 080°08'  
2017-Oct-15 03:25N 26°07' W 080°08'1 1.8
2017-Oct-15 03:01N 26°07' W 080°07'1 2.0
2017-Oct-15 02:31N 26°07' W 080°06'3 5.2
2017-Oct-15 02:00N 26°07' W 080°09'2 3.1
2017-Oct-15 01:30N 26°06' W 080°10'0 0.0
2017-Oct-15 01:00N 26°06' W 080°10'0 0.0
2017-Oct-15 00:30N 26°06' W 080°10'0 0.0
2017-Oct-14 23:59N 26°06' W 080°10'0 0.0
2017-Oct-14 23:30N 26°06' W 080°10'0 1.0
2017-Oct-14 23:00N 26°06' W 080°10'2 4.3
2017-Oct-14 22:30N 26°07' W 080°08'1 2.8
2017-Oct-14 22:00N 26°07' W 080°06'0 0.0
2017-Oct-14 21:30N 26°07' W 080°06'0 0.0
2017-Oct-14 21:00N 26°07' W 080°06'1 1.7
2017-Oct-14 20:30N 26°07' W 080°07'1 0.1
2017-Oct-14 03:07N 26°07' W 080°08'0 0.2
2017-Oct-14 03:01N 26°07' W 080°08'2 3.5
2017-Oct-14 02:31N 26°07' W 080°06'2 3.4
2017-Oct-14 02:00N 26°07' W 080°08'2 4.5
2017-Oct-14 01:29N 26°06' W 080°10'0 0.0
2017-Oct-14 01:01N 26°06' W 080°10'0 0.0
2017-Oct-14 00:30N 26°06' W 080°10'0 0.0
2017-Oct-13 23:56N 26°06' W 080°10'0 0.0
2017-Oct-13 23:20N 26°06' W 080°10'1 2.0
2017-Oct-13 23:01N 26°06' W 080°10'2 3.6
2017-Oct-13 22:31N 26°07' W 080°08'2 3.2
2017-Oct-13 22:00N 26°07' W 080°06'0 0.0
2017-Oct-13 21:30N 26°07' W 080°06'0 0.0
2017-Oct-13 21:00N 26°07' W 080°06'0 0.0
2017-Oct-13 20:30N 26°07' W 080°06'0 0.2
2017-Oct-13 20:00N 26°07' W 080°06'  
Track history (hours):
 
Tides and Currents Weather Stations Pressure Air Temp Water Temp Dewpoint Dewpoint Depression Visibility Wind Speed Wind Dir Waves Ship Positions

Musette

Owner: Carfi Enterprises, Wellington, FL. More information available from US FCC via Universal Licensing System and Coast Guard Vessel Documentation Center.

Last reported at 2017-Oct-22 04:03 UTC. Time now 2017-Oct-22 06:21 UTC.
Position N 26°07' W 080°08'.

; draft 2 m.

Type: Ship. MMSI: 366983050.

Date/timePositionNaut miles runAvg speedWind from/ knotsBaromVisibWave heightAir tempDewpointWater temp
2017-Oct-22 04:03N 26°07' W 080°08'0 0.0
2017-Oct-22 04:00N 26°07' W 080°08'2 3.5
2017-Oct-22 03:30N 26°07' W 080°06'0 0.0
2017-Oct-22 03:00N 26°07' W 080°06'2 3.3
2017-Oct-22 02:30N 26°07' W 080°08'2 4.3
2017-Oct-22 02:00N 26°06' W 080°10'0 0.1
2017-Oct-21 23:44N 26°06' W 080°10'0 0.0
2017-Oct-21 23:30N 26°06' W 080°10'1 2.9
2017-Oct-21 23:00N 26°07' W 080°09'2 4.5
2017-Oct-21 22:30N 26°07' W 080°07'0 0.9
2017-Oct-21 22:00N 26°07' W 080°06'0 0.0
2017-Oct-21 21:30N 26°07' W 080°06'0 0.2
2017-Oct-21 21:00N 26°07' W 080°06'2 3.3
2017-Oct-21 20:30N 26°07' W 080°08'0 0.0
2017-Oct-21 16:57N 26°07' W 080°08'1 1.6
2017-Oct-21 16:30N 26°07' W 080°08'1 2.1
2017-Oct-21 16:00N 26°06' W 080°07'3 0.1
2017-Oct-19 23:58N 26°03' W 080°07'1 2.5
2017-Oct-19 23:30N 26°04' W 080°07'3 5.8
2017-Oct-19 23:00N 26°07' W 080°08'0 0.0
2017-Oct-19 03:48N 26°07' W 080°08'0 0.2
2017-Oct-19 03:30N 26°07' W 080°08'2 3.4
2017-Oct-19 03:00N 26°07' W 080°06'2 3.8
2017-Oct-19 02:30N 26°07' W 080°08'1 1.4
2017-Oct-19 02:00N 26°07' W 080°09'2 3.2
2017-Oct-19 01:30N 26°06' W 080°10'0 0.0
2017-Oct-19 01:00N 26°06' W 080°10'0 0.0
2017-Oct-19 00:30N 26°06' W 080°10'0 0.0
2017-Oct-19 00:00N 26°06' W 080°10'0 0.0
2017-Oct-18 23:30N 26°06' W 080°10'1 2.1
2017-Oct-18 23:00N 26°06' W 080°10'1 2.4
2017-Oct-18 22:30N 26°07' W 080°08'2 3.7
2017-Oct-18 22:00N 26°07' W 080°06'0 0.0
2017-Oct-18 21:30N 26°07' W 080°06'0 0.0
2017-Oct-18 21:00N 26°07' W 080°06'0 0.1
2017-Oct-18 20:30N 26°07' W 080°06'2 3.5
2017-Oct-18 20:00N 26°07' W 080°08'0 0.0
2017-Oct-18 19:30N 26°07' W 080°08'0 0.0
2017-Oct-18 19:00N 26°07' W 080°08'0 0.0
2017-Oct-18 18:30N 26°07' W 080°08'  
2017-Oct-15 03:25N 26°07' W 080°08'1 1.8
2017-Oct-15 03:01N 26°07' W 080°07'1 2.0
2017-Oct-15 02:31N 26°07' W 080°06'3 5.2
2017-Oct-15 02:00N 26°07' W 080°09'2 3.1
2017-Oct-15 01:30N 26°06' W 080°10'0 0.0
2017-Oct-15 01:00N 26°06' W 080°10'0 0.0
2017-Oct-15 00:30N 26°06' W 080°10'0 0.0
2017-Oct-14 23:59N 26°06' W 080°10'0 0.0
2017-Oct-14 23:30N 26°06' W 080°10'0 1.0
2017-Oct-14 23:00N 26°06' W 080°10'2 4.3
2017-Oct-14 22:30N 26°07' W 080°08'1 2.8
2017-Oct-14 22:00N 26°07' W 080°06'0 0.0
2017-Oct-14 21:30N 26°07' W 080°06'0 0.0
2017-Oct-14 21:00N 26°07' W 080°06'1 1.7
2017-Oct-14 20:30N 26°07' W 080°07'1 0.1
2017-Oct-14 03:07N 26°07' W 080°08'0 0.2
2017-Oct-14 03:01N 26°07' W 080°08'2 3.5
2017-Oct-14 02:31N 26°07' W 080°06'2 3.4
2017-Oct-14 02:00N 26°07' W 080°08'2 4.5
2017-Oct-14 01:29N 26°06' W 080°10'0 0.0
2017-Oct-14 01:01N 26°06' W 080°10'0 0.0
2017-Oct-14 00:30N 26°06' W 080°10'0 0.0
2017-Oct-13 23:56N 26°06' W 080°10'0 0.0
2017-Oct-13 23:20N 26°06' W 080°10'1 2.0
2017-Oct-13 23:01N 26°06' W 080°10'2 3.6
2017-Oct-13 22:31N 26°07' W 080°08'2 3.2
2017-Oct-13 22:00N 26°07' W 080°06'0 0.0
2017-Oct-13 21:30N 26°07' W 080°06'0 0.0
2017-Oct-13 21:00N 26°07' W 080°06'0 0.0
2017-Oct-13 20:30N 26°07' W 080°06'0 0.2
2017-Oct-13 20:00N 26°07' W 080°06'  

Dump ship's entire track history